sensor_id;sensor_type;location;lat;lon;timestamp;temperature;humidity
13944;DHT22;7044;53.286;8.534;2023-04-15T00:00:48;5.80;71.30
13944;DHT22;7044;53.286;8.534;2023-04-15T00:03:16;5.80;76.80
13944;DHT22;7044;53.286;8.534;2023-04-15T00:05:43;5.80;79.70
13944;DHT22;7044;53.286;8.534;2023-04-15T00:08:11;5.90;87.10
13944;DHT22;7044;53.286;8.534;2023-04-15T00:10:38;5.90;89.20
13944;DHT22;7044;53.286;8.534;2023-04-15T00:13:05;6.00;90.30
13944;DHT22;7044;53.286;8.534;2023-04-15T00:15:32;6.00;90.40
13944;DHT22;7044;53.286;8.534;2023-04-15T00:17:58;6.00;89.50
13944;DHT22;7044;53.286;8.534;2023-04-15T00:20:25;6.00;90.40
13944;DHT22;7044;53.286;8.534;2023-04-15T00:22:52;6.00;91.10
13944;DHT22;7044;53.286;8.534;2023-04-15T00:25:20;6.00;92.00
13944;DHT22;7044;53.286;8.534;2023-04-15T00:27:47;6.10;92.20
13944;DHT22;7044;53.286;8.534;2023-04-15T00:30:14;6.10;92.90
13944;DHT22;7044;53.286;8.534;2023-04-15T00:32:41;6.10;93.00
13944;DHT22;7044;53.286;8.534;2023-04-15T00:35:09;6.20;92.70
13944;DHT22;7044;53.286;8.534;2023-04-15T00:37:35;6.20;92.70
13944;DHT22;7044;53.286;8.534;2023-04-15T00:40:03;6.10;93.20
13944;DHT22;7044;53.286;8.534;2023-04-15T00:42:33;6.10;93.90
13944;DHT22;7044;53.286;8.534;2023-04-15T00:45:00;6.10;93.50
13944;DHT22;7044;53.286;8.534;2023-04-15T00:47:28;6.00;93.60
13944;DHT22;7044;53.286;8.534;2023-04-15T00:49:55;6.10;94.70
13944;DHT22;7044;53.286;8.534;2023-04-15T00:52:22;6.10;95.00
13944;DHT22;7044;53.286;8.534;2023-04-15T00:54:49;6.10;95.00
13944;DHT22;7044;53.286;8.534;2023-04-15T00:57:19;6.10;95.80
13944;DHT22;7044;53.286;8.534;2023-04-15T00:59:48;6.00;96.00
13944;DHT22;7044;53.286;8.534;2023-04-15T01:02:15;6.10;96.30
13944;DHT22;7044;53.286;8.534;2023-04-15T01:04:42;6.20;96.50
13944;DHT22;7044;53.286;8.534;2023-04-15T01:07:09;6.20;96.80
13944;DHT22;7044;53.286;8.534;2023-04-15T01:09:36;6.20;97.00
13944;DHT22;7044;53.286;8.534;2023-04-15T01:12:03;6.20;97.20
13944;DHT22;7044;53.286;8.534;2023-04-15T01:14:31;6.20;97.50
13944;DHT22;7044;53.286;8.534;2023-04-15T01:17:00;6.20;97.70
13944;DHT22;7044;53.286;8.534;2023-04-15T01:19:27;6.30;97.90
13944;DHT22;7044;53.286;8.534;2023-04-15T01:21:54;6.20;98.00
13944;DHT22;7044;53.286;8.534;2023-04-15T01:24:22;6.30;98.60
13944;DHT22;7044;53.286;8.534;2023-04-15T01:26:51;6.20;98.30
13944;DHT22;7044;53.286;8.534;2023-04-15T01:29:17;6.20;99.10
13944;DHT22;7044;53.286;8.534;2023-04-15T01:31:49;6.20;99.60
13944;DHT22;7044;53.286;8.534;2023-04-15T01:34:16;6.20;99.90
13944;DHT22;7044;53.286;8.534;2023-04-15T01:36:43;6.30;99.90
13944;DHT22;7044;53.286;8.534;2023-04-15T01:39:10;6.30;99.90
13944;DHT22;7044;53.286;8.534;2023-04-15T01:41:37;6.30;99.90
13944;DHT22;7044;53.286;8.534;2023-04-15T01:44:05;6.40;99.90
13944;DHT22;7044;53.286;8.534;2023-04-15T01:46:32;6.40;99.90
13944;DHT22;7044;53.286;8.534;2023-04-15T01:48:59;6.30;99.90
13944;DHT22;7044;53.286;8.534;2023-04-15T01:51:26;6.30;99.90
13944;DHT22;7044;53.286;8.534;2023-04-15T01:53:53;6.30;99.90
13944;DHT22;7044;53.286;8.534;2023-04-15T01:56:21;6.30;99.90
13944;DHT22;7044;53.286;8.534;2023-04-15T01:58:49;6.30;99.90
13944;DHT22;7044;53.286;8.534;2023-04-15T02:01:18;6.30;99.90
13944;DHT22;7044;53.286;8.534;2023-04-15T02:03:45;6.40;99.90
13944;DHT22;7044;53.286;8.534;2023-04-15T02:06:12;6.40;99.90
13944;DHT22;7044;53.286;8.534;2023-04-15T02:08:39;6.40;99.90
13944;DHT22;7044;53.286;8.534;2023-04-15T02:11:05;6.40;99.90
13944;DHT22;7044;53.286;8.534;2023-04-15T02:13:32;6.40;99.90
13944;DHT22;7044;53.286;8.534;2023-04-15T02:15:59;6.40;99.90
13944;DHT22;7044;53.286;8.534;2023-04-15T02:18:27;6.40;99.90
13944;DHT22;7044;53.286;8.534;2023-04-15T02:20:54;6.50;99.90
13944;DHT22;7044;53.286;8.534;2023-04-15T02:23:23;6.50;99.90
13944;DHT22;7044;53.286;8.534;2023-04-15T02:25:49;6.50;99.90
13944;DHT22;7044;53.286;8.534;2023-04-15T02:28:16;6.40;99.90
13944;DHT22;7044;53.286;8.534;2023-04-15T02:30:46;6.40;99.90
13944;DHT22;7044;53.286;8.534;2023-04-15T02:33:13;6.50;99.90
13944;DHT22;7044;53.286;8.534;2023-04-15T02:35:41;6.50;99.90
13944;DHT22;7044;53.286;8.534;2023-04-15T02:38:09;6.50;99.90
13944;DHT22;7044;53.286;8.534;2023-04-15T02:40:37;6.60;99.90
13944;DHT22;7044;53.286;8.534;2023-04-15T02:43:03;6.60;99.90
13944;DHT22;7044;53.286;8.534;2023-04-15T02:45:31;6.70;99.90
13944;DHT22;7044;53.286;8.534;2023-04-15T02:47:58;6.70;99.90
13944;DHT22;7044;53.286;8.534;2023-04-15T02:50:28;6.70;99.90
13944;DHT22;7044;53.286;8.534;2023-04-15T02:52:57;6.70;99.90
13944;DHT22;7044;53.286;8.534;2023-04-15T02:55:25;6.80;99.90
13944;DHT22;7044;53.286;8.534;2023-04-15T02:57:52;6.80;99.90
13944;DHT22;7044;53.286;8.534;2023-04-15T03:00:19;6.80;99.90
13944;DHT22;7044;53.286;8.534;2023-04-15T03:02:46;6.80;99.90
13944;DHT22;7044;53.286;8.534;2023-04-15T03:05:16;6.90;99.90
13944;DHT22;7044;53.286;8.534;2023-04-15T03:07:43;6.90;99.90
13944;DHT22;7044;53.286;8.534;2023-04-15T03:10:11;7.00;99.90
13944;DHT22;7044;53.286;8.534;2023-04-15T03:12:38;6.90;99.90
13944;DHT22;7044;53.286;8.534;2023-04-15T03:15:07;6.90;99.90
13944;DHT22;7044;53.286;8.534;2023-04-15T03:17:34;7.00;99.90
13944;DHT22;7044;53.286;8.534;2023-04-15T03:20:01;7.00;99.90
13944;DHT22;7044;53.286;8.534;2023-04-15T03:22:29;6.90;99.90
13944;DHT22;7044;53.286;8.534;2023-04-15T03:24:56;7.00;99.90
13944;DHT22;7044;53.286;8.534;2023-04-15T03:27:25;7.00;99.90
13944;DHT22;7044;53.286;8.534;2023-04-15T03:29:51;7.00;99.90
13944;DHT22;7044;53.286;8.534;2023-04-15T03:32:18;7.00;99.90
13944;DHT22;7044;53.286;8.534;2023-04-15T03:34:45;7.00;99.90
13944;DHT22;7044;53.286;8.534;2023-04-15T03:37:12;7.00;99.90
13944;DHT22;7044;53.286;8.534;2023-04-15T03:39:39;7.00;99.90
13944;DHT22;7044;53.286;8.534;2023-04-15T03:42:06;7.00;99.90
13944;DHT22;7044;53.286;8.534;2023-04-15T03:44:34;7.00;99.90
13944;DHT22;7044;53.286;8.534;2023-04-15T03:47:01;7.10;99.90
13944;DHT22;7044;53.286;8.534;2023-04-15T03:49:28;7.10;99.90
13944;DHT22;7044;53.286;8.534;2023-04-15T03:51:55;7.10;99.90
13944;DHT22;7044;53.286;8.534;2023-04-15T03:54:22;7.10;99.90
13944;DHT22;7044;53.286;8.534;2023-04-15T03:56:48;7.20;99.90
13944;DHT22;7044;53.286;8.534;2023-04-15T03:59:15;7.20;99.90
13944;DHT22;7044;53.286;8.534;2023-04-15T04:01:43;7.20;99.90
13944;DHT22;7044;53.286;8.534;2023-04-15T04:04:10;7.30;99.90
13944;DHT22;7044;53.286;8.534;2023-04-15T04:06:37;7.20;99.90
13944;DHT22;7044;53.286;8.534;2023-04-15T04:09:04;7.30;99.90
13944;DHT22;7044;53.286;8.534;2023-04-15T04:11:30;7.30;99.90
13944;DHT22;7044;53.286;8.534;2023-04-15T04:13:57;7.30;99.90
13944;DHT22;7044;53.286;8.534;2023-04-15T04:16:24;7.30;99.90
13944;DHT22;7044;53.286;8.534;2023-04-15T04:18:52;7.30;99.90
13944;DHT22;7044;53.286;8.534;2023-04-15T04:21:19;7.30;99.90
13944;DHT22;7044;53.286;8.534;2023-04-15T04:23:46;7.40;99.90
13944;DHT22;7044;53.286;8.534;2023-04-15T04:26:13;7.40;99.90
13944;DHT22;7044;53.286;8.534;2023-04-15T04:28:40;7.30;99.90
13944;DHT22;7044;53.286;8.534;2023-04-15T04:31:07;7.30;99.90
13944;DHT22;7044;53.286;8.534;2023-04-15T04:33:34;7.40;99.90
13944;DHT22;7044;53.286;8.534;2023-04-15T04:36:03;7.40;99.90
13944;DHT22;7044;53.286;8.534;2023-04-15T04:38:31;7.40;99.90
13944;DHT22;7044;53.286;8.534;2023-04-15T04:40:57;7.40;99.90
13944;DHT22;7044;53.286;8.534;2023-04-15T04:43:24;7.40;99.90
13944;DHT22;7044;53.286;8.534;2023-04-15T04:45:51;7.40;99.90
13944;DHT22;7044;53.286;8.534;2023-04-15T04:48:18;7.40;99.90
13944;DHT22;7044;53.286;8.534;2023-04-15T04:50:45;7.40;99.90
13944;DHT22;7044;53.286;8.534;2023-04-15T04:53:13;7.40;99.90
13944;DHT22;7044;53.286;8.534;2023-04-15T04:55:40;7.40;99.90
13944;DHT22;7044;53.286;8.534;2023-04-15T04:58:07;7.40;99.90
13944;DHT22;7044;53.286;8.534;2023-04-15T05:00:34;7.40;99.90
13944;DHT22;7044;53.286;8.534;2023-04-15T05:03:02;7.50;99.90
13944;DHT22;7044;53.286;8.534;2023-04-15T05:05:29;7.50;99.90
13944;DHT22;7044;53.286;8.534;2023-04-15T05:07:56;7.50;99.90
13944;DHT22;7044;53.286;8.534;2023-04-15T05:10:24;7.50;99.90
13944;DHT22;7044;53.286;8.534;2023-04-15T05:12:51;7.50;99.90
13944;DHT22;7044;53.286;8.534;2023-04-15T05:15:18;7.50;99.90
13944;DHT22;7044;53.286;8.534;2023-04-15T05:17:45;7.50;99.90
13944;DHT22;7044;53.286;8.534;2023-04-15T05:20:13;7.50;99.90
13944;DHT22;7044;53.286;8.534;2023-04-15T05:22:40;7.60;99.90
13944;DHT22;7044;53.286;8.534;2023-04-15T05:25:07;7.60;99.90
13944;DHT22;7044;53.286;8.534;2023-04-15T05:27:35;7.60;99.90
13944;DHT22;7044;53.286;8.534;2023-04-15T05:30:02;7.60;99.90
13944;DHT22;7044;53.286;8.534;2023-04-15T05:32:30;7.60;99.90
13944;DHT22;7044;53.286;8.534;2023-04-15T05:34:56;7.70;99.90
13944;DHT22;7044;53.286;8.534;2023-04-15T05:37:23;7.70;99.90
13944;DHT22;7044;53.286;8.534;2023-04-15T05:39:50;7.70;99.90
13944;DHT22;7044;53.286;8.534;2023-04-15T05:42:17;7.70;99.90
13944;DHT22;7044;53.286;8.534;2023-04-15T05:44:45;7.70;99.90
13944;DHT22;7044;53.286;8.534;2023-04-15T05:47:12;7.70;99.90
13944;DHT22;7044;53.286;8.534;2023-04-15T05:49:39;7.70;99.90
13944;DHT22;7044;53.286;8.534;2023-04-15T05:52:05;7.70;99.90
13944;DHT22;7044;53.286;8.534;2023-04-15T05:54:32;7.70;99.90
13944;DHT22;7044;53.286;8.534;2023-04-15T05:56:59;7.80;99.90
13944;DHT22;7044;53.286;8.534;2023-04-15T05:59:26;7.80;99.90
13944;DHT22;7044;53.286;8.534;2023-04-15T06:01:55;7.80;99.90
13944;DHT22;7044;53.286;8.534;2023-04-15T06:04:22;7.80;99.90
13944;DHT22;7044;53.286;8.534;2023-04-15T06:06:48;7.80;99.90
13944;DHT22;7044;53.286;8.534;2023-04-15T06:09:15;7.80;99.90
13944;DHT22;7044;53.286;8.534;2023-04-15T06:11:42;8.10;99.90
13944;DHT22;7044;53.286;8.534;2023-04-15T06:14:09;7.90;99.90
13944;DHT22;7044;53.286;8.534;2023-04-15T06:16:36;7.90;99.90
13944;DHT22;7044;53.286;8.534;2023-04-15T06:19:04;7.90;99.90
13944;DHT22;7044;53.286;8.534;2023-04-15T06:21:31;7.90;99.90
13944;DHT22;7044;53.286;8.534;2023-04-15T06:23:58;7.90;99.90
13944;DHT22;7044;53.286;8.534;2023-04-15T06:26:25;7.90;99.90
13944;DHT22;7044;53.286;8.534;2023-04-15T06:28:52;7.90;99.90
13944;DHT22;7044;53.286;8.534;2023-04-15T06:31:20;7.90;99.90
13944;DHT22;7044;53.286;8.534;2023-04-15T06:33:47;8.00;99.90
13944;DHT22;7044;53.286;8.534;2023-04-15T06:36:15;7.90;99.90
13944;DHT22;7044;53.286;8.534;2023-04-15T06:38:42;8.00;99.90
13944;DHT22;7044;53.286;8.534;2023-04-15T06:41:09;8.00;99.90
13944;DHT22;7044;53.286;8.534;2023-04-15T06:43:36;8.00;99.90
13944;DHT22;7044;53.286;8.534;2023-04-15T06:46:02;8.00;99.90
13944;DHT22;7044;53.286;8.534;2023-04-15T06:48:29;8.00;99.90
13944;DHT22;7044;53.286;8.534;2023-04-15T06:50:56;8.00;99.90
13944;DHT22;7044;53.286;8.534;2023-04-15T06:53:25;8.00;99.90
13944;DHT22;7044;53.286;8.534;2023-04-15T06:55:52;8.00;99.90
13944;DHT22;7044;53.286;8.534;2023-04-15T06:58:19;8.10;99.90
13944;DHT22;7044;53.286;8.534;2023-04-15T07:00:46;8.10;99.90
13944;DHT22;7044;53.286;8.534;2023-04-15T07:03:13;8.10;99.90
13944;DHT22;7044;53.286;8.534;2023-04-15T07:05:40;8.10;99.90
13944;DHT22;7044;53.286;8.534;2023-04-15T07:08:07;8.10;99.90
13944;DHT22;7044;53.286;8.534;2023-04-15T07:10:36;8.20;99.90
13944;DHT22;7044;53.286;8.534;2023-04-15T07:13:03;8.20;99.90
13944;DHT22;7044;53.286;8.534;2023-04-15T07:15:30;8.20;99.90
13944;DHT22;7044;53.286;8.534;2023-04-15T07:17:56;8.10;99.90
13944;DHT22;7044;53.286;8.534;2023-04-15T07:20:23;8.20;99.90
13944;DHT22;7044;53.286;8.534;2023-04-15T07:22:50;8.20;99.90
13944;DHT22;7044;53.286;8.534;2023-04-15T07:25:17;8.30;99.90
13944;DHT22;7044;53.286;8.534;2023-04-15T07:27:45;8.30;99.90
13944;DHT22;7044;53.286;8.534;2023-04-15T07:30:13;8.30;99.90
13944;DHT22;7044;53.286;8.534;2023-04-15T07:32:41;8.30;99.90
13944;DHT22;7044;53.286;8.534;2023-04-15T07:35:08;8.30;99.90
13944;DHT22;7044;53.286;8.534;2023-04-15T07:37:35;8.30;99.90
13944;DHT22;7044;53.286;8.534;2023-04-15T07:40:02;8.30;99.90
13944;DHT22;7044;53.286;8.534;2023-04-15T07:42:31;8.40;99.90
13944;DHT22;7044;53.286;8.534;2023-04-15T07:44:59;8.40;99.90
13944;DHT22;7044;53.286;8.534;2023-04-15T07:47:26;8.40;99.90
13944;DHT22;7044;53.286;8.534;2023-04-15T07:49:53;8.40;99.90
13944;DHT22;7044;53.286;8.534;2023-04-15T07:52:20;8.50;99.90
13944;DHT22;7044;53.286;8.534;2023-04-15T07:54:46;8.50;99.90
13944;DHT22;7044;53.286;8.534;2023-04-15T07:57:13;8.40;99.90
13944;DHT22;7044;53.286;8.534;2023-04-15T07:59:41;8.50;99.90
13944;DHT22;7044;53.286;8.534;2023-04-15T08:02:10;8.50;99.90
13944;DHT22;7044;53.286;8.534;2023-04-15T08:04:36;8.50;99.90
13944;DHT22;7044;53.286;8.534;2023-04-15T08:07:03;8.40;99.90
13944;DHT22;7044;53.286;8.534;2023-04-15T08:09:30;8.40;99.90
13944;DHT22;7044;53.286;8.534;2023-04-15T08:11:57;8.50;99.90
13944;DHT22;7044;53.286;8.534;2023-04-15T08:14:24;8.50;99.90
13944;DHT22;7044;53.286;8.534;2023-04-15T08:16:50;8.40;99.90
13944;DHT22;7044;53.286;8.534;2023-04-15T08:19:19;8.50;99.90
13944;DHT22;7044;53.286;8.534;2023-04-15T08:21:46;8.50;99.90
13944;DHT22;7044;53.286;8.534;2023-04-15T08:24:12;8.50;99.90
13944;DHT22;7044;53.286;8.534;2023-04-15T08:26:40;8.50;99.90
13944;DHT22;7044;53.286;8.534;2023-04-15T08:29:06;8.50;99.90
13944;DHT22;7044;53.286;8.534;2023-04-15T08:31:33;8.50;99.90
13944;DHT22;7044;53.286;8.534;2023-04-15T08:34:00;8.50;99.90
13944;DHT22;7044;53.286;8.534;2023-04-15T08:36:28;8.50;99.90
13944;DHT22;7044;53.286;8.534;2023-04-15T08:38:55;8.50;99.90
13944;DHT22;7044;53.286;8.534;2023-04-15T08:41:23;8.50;99.90
13944;DHT22;7044;53.286;8.534;2023-04-15T08:43:56;8.60;99.90
13944;DHT22;7044;53.286;8.534;2023-04-15T08:46:23;8.60;99.90
13944;DHT22;7044;53.286;8.534;2023-04-15T08:48:50;8.70;99.90
13944;DHT22;7044;53.286;8.534;2023-04-15T08:51:17;8.60;99.90
13944;DHT22;7044;53.286;8.534;2023-04-15T08:53:46;8.70;99.90
13944;DHT22;7044;53.286;8.534;2023-04-15T08:56:14;8.80;99.90
13944;DHT22;7044;53.286;8.534;2023-04-15T08:58:43;8.70;99.90
13944;DHT22;7044;53.286;8.534;2023-04-15T09:01:11;8.70;99.90
13944;DHT22;7044;53.286;8.534;2023-04-15T09:03:38;8.70;99.90
13944;DHT22;7044;53.286;8.534;2023-04-15T09:06:05;8.80;99.90
13944;DHT22;7044;53.286;8.534;2023-04-15T09:08:32;8.80;99.90
13944;DHT22;7044;53.286;8.534;2023-04-15T09:11:02;8.80;99.90
13944;DHT22;7044;53.286;8.534;2023-04-15T09:13:29;8.70;99.90
13944;DHT22;7044;53.286;8.534;2023-04-15T09:15:56;8.70;99.90
13944;DHT22;7044;53.286;8.534;2023-04-15T09:18:27;8.70;99.90
13944;DHT22;7044;53.286;8.534;2023-04-15T09:20:55;8.70;99.90
13944;DHT22;7044;53.286;8.534;2023-04-15T09:23:22;8.70;99.90
13944;DHT22;7044;53.286;8.534;2023-04-15T09:25:49;8.70;99.90
13944;DHT22;7044;53.286;8.534;2023-04-15T09:28:23;8.70;99.90
13944;DHT22;7044;53.286;8.534;2023-04-15T09:30:54;8.70;99.90
13944;DHT22;7044;53.286;8.534;2023-04-15T09:33:21;8.70;99.90
13944;DHT22;7044;53.286;8.534;2023-04-15T09:35:56;8.70;99.90
13944;DHT22;7044;53.286;8.534;2023-04-15T09:38:24;8.80;99.90
13944;DHT22;7044;53.286;8.534;2023-04-15T09:40:50;8.80;99.90
13944;DHT22;7044;53.286;8.534;2023-04-15T09:43:19;8.80;99.90
13944;DHT22;7044;53.286;8.534;2023-04-15T09:45:47;8.80;99.90
13944;DHT22;7044;53.286;8.534;2023-04-15T09:48:17;8.80;99.90
13944;DHT22;7044;53.286;8.534;2023-04-15T09:50:45;8.80;99.90
13944;DHT22;7044;53.286;8.534;2023-04-15T09:53:15;8.80;99.90
13944;DHT22;7044;53.286;8.534;2023-04-15T09:55:45;8.90;99.90
13944;DHT22;7044;53.286;8.534;2023-04-15T09:58:18;8.90;99.90
13944;DHT22;7044;53.286;8.534;2023-04-15T10:00:47;9.00;99.90
13944;DHT22;7044;53.286;8.534;2023-04-15T10:03:18;9.00;99.90
13944;DHT22;7044;53.286;8.534;2023-04-15T10:05:47;9.00;99.90
13944;DHT22;7044;53.286;8.534;2023-04-15T10:08:16;9.00;99.90
13944;DHT22;7044;53.286;8.534;2023-04-15T10:10:44;9.00;99.90
13944;DHT22;7044;53.286;8.534;2023-04-15T10:13:12;9.10;99.90
13944;DHT22;7044;53.286;8.534;2023-04-15T10:15:42;9.10;99.90
13944;DHT22;7044;53.286;8.534;2023-04-15T10:18:10;9.10;99.90
13944;DHT22;7044;53.286;8.534;2023-04-15T10:20:39;9.20;99.90
13944;DHT22;7044;53.286;8.534;2023-04-15T10:23:07;9.20;99.90
13944;DHT22;7044;53.286;8.534;2023-04-15T10:25:35;9.20;99.90
13944;DHT22;7044;53.286;8.534;2023-04-15T10:28:03;9.20;99.90
13944;DHT22;7044;53.286;8.534;2023-04-15T10:30:32;9.10;99.90
13944;DHT22;7044;53.286;8.534;2023-04-15T10:33:00;9.10;99.90
13944;DHT22;7044;53.286;8.534;2023-04-15T10:35:28;9.10;99.90
13944;DHT22;7044;53.286;8.534;2023-04-15T10:37:56;9.10;99.90
13944;DHT22;7044;53.286;8.534;2023-04-15T10:40:28;9.00;99.90
13944;DHT22;7044;53.286;8.534;2023-04-15T10:42:57;9.10;99.90
13944;DHT22;7044;53.286;8.534;2023-04-15T10:45:25;9.10;99.90
13944;DHT22;7044;53.286;8.534;2023-04-15T10:47:55;9.00;99.90
13944;DHT22;7044;53.286;8.534;2023-04-15T10:50:25;9.00;99.90
13944;DHT22;7044;53.286;8.534;2023-04-15T10:52:52;9.00;99.90
13944;DHT22;7044;53.286;8.534;2023-04-15T10:55:21;9.00;99.90
13944;DHT22;7044;53.286;8.534;2023-04-15T10:57:51;9.00;99.90
13944;DHT22;7044;53.286;8.534;2023-04-15T11:00:19;9.00;99.90
13944;DHT22;7044;53.286;8.534;2023-04-15T11:02:50;8.90;99.90
13944;DHT22;7044;53.286;8.534;2023-04-15T11:05:18;9.00;99.90
13944;DHT22;7044;53.286;8.534;2023-04-15T11:07:54;9.00;99.90
13944;DHT22;7044;53.286;8.534;2023-04-15T11:10:51;9.00;99.90
13944;DHT22;7044;53.286;8.534;2023-04-15T11:13:26;9.00;99.90
13944;DHT22;7044;53.286;8.534;2023-04-15T11:15:58;9.00;99.90
13944;DHT22;7044;53.286;8.534;2023-04-15T11:18:31;8.90;99.90
13944;DHT22;7044;53.286;8.534;2023-04-15T11:21:03;9.00;99.90
13944;DHT22;7044;53.286;8.534;2023-04-15T11:23:37;8.90;99.90
13944;DHT22;7044;53.286;8.534;2023-04-15T11:26:05;8.90;99.90
13944;DHT22;7044;53.286;8.534;2023-04-15T11:28:34;9.00;99.90
13944;DHT22;7044;53.286;8.534;2023-04-15T11:31:06;8.90;99.90
13944;DHT22;7044;53.286;8.534;2023-04-15T11:33:35;8.90;99.90
13944;DHT22;7044;53.286;8.534;2023-04-15T11:36:02;9.00;99.90
13944;DHT22;7044;53.286;8.534;2023-04-15T11:38:29;9.00;99.90
13944;DHT22;7044;53.286;8.534;2023-04-15T11:40:57;9.10;99.90
13944;DHT22;7044;53.286;8.534;2023-04-15T11:43:24;9.10;99.90
13944;DHT22;7044;53.286;8.534;2023-04-15T11:45:53;9.10;99.90
13944;DHT22;7044;53.286;8.534;2023-04-15T11:48:21;9.10;99.90
13944;DHT22;7044;53.286;8.534;2023-04-15T11:50:53;9.20;99.90
13944;DHT22;7044;53.286;8.534;2023-04-15T11:53:20;9.20;99.90
13944;DHT22;7044;53.286;8.534;2023-04-15T11:55:49;9.30;99.90
13944;DHT22;7044;53.286;8.534;2023-04-15T11:58:19;9.20;99.90
13944;DHT22;7044;53.286;8.534;2023-04-15T12:00:47;9.20;99.90
13944;DHT22;7044;53.286;8.534;2023-04-15T12:03:17;9.20;99.90
13944;DHT22;7044;53.286;8.534;2023-04-15T12:06:13;9.20;99.90
13944;DHT22;7044;53.286;8.534;2023-04-15T12:08:57;9.30;99.90
13944;DHT22;7044;53.286;8.534;2023-04-15T12:11:44;9.30;99.90
13944;DHT22;7044;53.286;8.534;2023-04-15T12:14:18;9.30;99.90
13944;DHT22;7044;53.286;8.534;2023-04-15T12:16:47;9.40;99.90
13944;DHT22;7044;53.286;8.534;2023-04-15T12:19:16;9.40;99.90
13944;DHT22;7044;53.286;8.534;2023-04-15T12:21:44;9.40;99.90
13944;DHT22;7044;53.286;8.534;2023-04-15T12:24:12;9.40;99.90
13944;DHT22;7044;53.286;8.534;2023-04-15T12:26:43;9.40;99.90
13944;DHT22;7044;53.286;8.534;2023-04-15T12:29:13;9.40;99.90
13944;DHT22;7044;53.286;8.534;2023-04-15T12:31:53;9.40;99.90
13944;DHT22;7044;53.286;8.534;2023-04-15T12:34:26;9.40;99.90
13944;DHT22;7044;53.286;8.534;2023-04-15T12:36:54;9.40;99.90
13944;DHT22;7044;53.286;8.534;2023-04-15T12:39:22;9.50;99.90
13944;DHT22;7044;53.286;8.534;2023-04-15T12:41:49;9.50;99.90
13944;DHT22;7044;53.286;8.534;2023-04-15T12:44:17;9.40;99.90
13944;DHT22;7044;53.286;8.534;2023-04-15T12:46:44;9.40;99.90
13944;DHT22;7044;53.286;8.534;2023-04-15T12:49:11;9.50;99.90
13944;DHT22;7044;53.286;8.534;2023-04-15T12:51:40;9.50;99.90
13944;DHT22;7044;53.286;8.534;2023-04-15T12:54:07;9.60;99.90
13944;DHT22;7044;53.286;8.534;2023-04-15T12:56:34;9.60;99.90
13944;DHT22;7044;53.286;8.534;2023-04-15T12:59:01;9.60;99.90
13944;DHT22;7044;53.286;8.534;2023-04-15T13:01:29;9.60;99.90
13944;DHT22;7044;53.286;8.534;2023-04-15T13:03:56;9.70;99.90
13944;DHT22;7044;53.286;8.534;2023-04-15T13:06:22;9.70;99.90
13944;DHT22;7044;53.286;8.534;2023-04-15T13:08:49;9.70;99.90
13944;DHT22;7044;53.286;8.534;2023-04-15T13:11:19;9.80;99.90
13944;DHT22;7044;53.286;8.534;2023-04-15T13:13:46;9.80;99.90
13944;DHT22;7044;53.286;8.534;2023-04-15T13:16:13;9.90;99.90
13944;DHT22;7044;53.286;8.534;2023-04-15T13:18:41;10.00;99.90
13944;DHT22;7044;53.286;8.534;2023-04-15T13:21:08;10.10;99.90
13944;DHT22;7044;53.286;8.534;2023-04-15T13:23:35;10.10;99.90
13944;DHT22;7044;53.286;8.534;2023-04-15T13:26:02;10.10;99.90
13944;DHT22;7044;53.286;8.534;2023-04-15T13:28:29;10.20;99.90
13944;DHT22;7044;53.286;8.534;2023-04-15T13:30:56;10.20;99.90
13944;DHT22;7044;53.286;8.534;2023-04-15T13:33:22;10.30;99.90
13944;DHT22;7044;53.286;8.534;2023-04-15T13:35:51;10.40;99.90
13944;DHT22;7044;53.286;8.534;2023-04-15T13:38:18;10.40;99.90
13944;DHT22;7044;53.286;8.534;2023-04-15T13:40:45;10.70;99.90
13944;DHT22;7044;53.286;8.534;2023-04-15T13:43:11;10.90;99.90
13944;DHT22;7044;53.286;8.534;2023-04-15T13:45:38;10.90;99.90
13944;DHT22;7044;53.286;8.534;2023-04-15T13:48:05;10.90;99.90
13944;DHT22;7044;53.286;8.534;2023-04-15T13:50:32;10.90;99.90
13944;DHT22;7044;53.286;8.534;2023-04-15T13:53:00;10.90;99.90
13944;DHT22;7044;53.286;8.534;2023-04-15T13:55:27;11.00;99.90
13944;DHT22;7044;53.286;8.534;2023-04-15T13:57:55;11.10;99.90
13944;DHT22;7044;53.286;8.534;2023-04-15T14:00:22;11.30;99.90
13944;DHT22;7044;53.286;8.534;2023-04-15T14:02:49;11.30;99.90
13944;DHT22;7044;53.286;8.534;2023-04-15T14:05:16;11.40;99.90
13944;DHT22;7044;53.286;8.534;2023-04-15T14:07:43;11.30;99.90
13944;DHT22;7044;53.286;8.534;2023-04-15T14:10:11;11.40;99.90
13944;DHT22;7044;53.286;8.534;2023-04-15T14:12:38;11.40;99.90
13944;DHT22;7044;53.286;8.534;2023-04-15T14:15:05;11.40;99.90
13944;DHT22;7044;53.286;8.534;2023-04-15T14:17:32;11.40;99.90
13944;DHT22;7044;53.286;8.534;2023-04-15T14:19:59;11.60;99.90
13944;DHT22;7044;53.286;8.534;2023-04-15T14:22:26;11.40;99.90
13944;DHT22;7044;53.286;8.534;2023-04-15T14:24:53;11.40;99.90
13944;DHT22;7044;53.286;8.534;2023-04-15T14:27:21;11.40;99.90
13944;DHT22;7044;53.286;8.534;2023-04-15T14:29:48;11.30;99.90
13944;DHT22;7044;53.286;8.534;2023-04-15T14:32:15;11.30;99.90
13944;DHT22;7044;53.286;8.534;2023-04-15T14:34:42;11.30;99.90
13944;DHT22;7044;53.286;8.534;2023-04-15T14:37:09;11.40;99.90
13944;DHT22;7044;53.286;8.534;2023-04-15T14:39:35;11.40;99.90
13944;DHT22;7044;53.286;8.534;2023-04-15T14:42:02;11.50;99.90
13944;DHT22;7044;53.286;8.534;2023-04-15T14:44:30;11.50;99.90
13944;DHT22;7044;53.286;8.534;2023-04-15T14:46:57;11.70;99.90
13944;DHT22;7044;53.286;8.534;2023-04-15T14:49:24;11.80;99.90
13944;DHT22;7044;53.286;8.534;2023-04-15T14:51:51;11.90;99.90
13944;DHT22;7044;53.286;8.534;2023-04-15T14:54:18;11.90;99.90
13944;DHT22;7044;53.286;8.534;2023-04-15T14:56:45;11.80;99.90
13944;DHT22;7044;53.286;8.534;2023-04-15T14:59:11;11.70;99.90
13944;DHT22;7044;53.286;8.534;2023-04-15T15:01:39;11.80;99.90
13944;DHT22;7044;53.286;8.534;2023-04-15T15:04:06;11.80;99.90
13944;DHT22;7044;53.286;8.534;2023-04-15T15:06:33;12.00;99.90
13944;DHT22;7044;53.286;8.534;2023-04-15T15:09:00;12.10;99.90
13944;DHT22;7044;53.286;8.534;2023-04-15T15:11:27;12.10;99.90
13944;DHT22;7044;53.286;8.534;2023-04-15T15:13:54;12.20;99.90
13944;DHT22;7044;53.286;8.534;2023-04-15T15:16:21;12.20;99.70
13944;DHT22;7044;53.286;8.534;2023-04-15T15:18:50;12.20;99.70
13944;DHT22;7044;53.286;8.534;2023-04-15T15:21:16;12.20;99.90
13944;DHT22;7044;53.286;8.534;2023-04-15T15:23:43;12.20;99.00
13944;DHT22;7044;53.286;8.534;2023-04-15T15:26:10;12.20;99.90
13944;DHT22;7044;53.286;8.534;2023-04-15T15:28:37;12.30;99.90
13944;DHT22;7044;53.286;8.534;2023-04-15T15:31:04;12.30;99.90
13944;DHT22;7044;53.286;8.534;2023-04-15T15:33:31;12.20;99.90
13944;DHT22;7044;53.286;8.534;2023-04-15T15:35:59;12.20;99.90
13944;DHT22;7044;53.286;8.534;2023-04-15T15:38:27;12.20;99.90
13944;DHT22;7044;53.286;8.534;2023-04-15T15:40:53;12.20;99.90
13944;DHT22;7044;53.286;8.534;2023-04-15T15:43:20;12.30;99.90
13944;DHT22;7044;53.286;8.534;2023-04-15T15:45:47;12.30;99.90
13944;DHT22;7044;53.286;8.534;2023-04-15T15:48:16;12.30;99.90
13944;DHT22;7044;53.286;8.534;2023-04-15T15:50:44;12.30;99.90
13944;DHT22;7044;53.286;8.534;2023-04-15T15:53:12;12.30;99.90
13944;DHT22;7044;53.286;8.534;2023-04-15T15:55:45;12.30;99.90
13944;DHT22;7044;53.286;8.534;2023-04-15T15:58:12;12.30;99.90
13944;DHT22;7044;53.286;8.534;2023-04-15T16:00:38;12.40;99.90
13944;DHT22;7044;53.286;8.534;2023-04-15T16:03:05;12.30;99.90